createdAt,value
2023-01-15T00:01:23.279Z,99284.63
2023-01-15T00:03:26.097Z,99290.69
2023-01-15T00:05:28.892Z,99276.84
2023-01-15T00:07:32.250Z,99274.22
2023-01-15T00:09:35.227Z,99274.22
2023-01-15T00:11:38.025Z,99275.09
2023-01-15T00:13:42.279Z,99276.81
2023-01-15T00:15:45.156Z,99260.34
2023-01-15T00:17:48.063Z,99266.44
2023-01-15T00:19:50.951Z,99262.09
2023-01-15T00:21:53.930Z,99254.31
2023-01-15T00:24:14.575Z,99248.19
2023-01-15T00:26:35.996Z,99237.78
2023-01-15T00:28:38.768Z,99222.25
2023-01-15T00:30:43.440Z,99233.53
2023-01-15T00:32:46.372Z,99235.25
2023-01-15T00:34:49.191Z,99231.75
2023-01-15T00:36:51.976Z,99225.69
2023-01-15T00:38:54.814Z,99223.09
2023-01-15T00:40:57.607Z,99220.50
2023-01-15T00:43:00.408Z,99211.81
2023-01-15T00:45:09.834Z,99213.59
2023-01-15T00:47:15.201Z,99217.09
2023-01-15T00:49:17.859Z,99212.72
2023-01-15T00:51:20.691Z,99217.09
2023-01-15T00:53:23.570Z,99206.63
2023-01-15T00:55:26.758Z,99210.09
2023-01-15T00:57:29.652Z,99197.13
2023-01-15T00:59:32.458Z,99212.72
2023-01-15T01:01:35.511Z,99191.94
2023-01-15T01:03:39.653Z,99196.28
2023-01-15T01:05:42.458Z,99191.91
2023-01-15T01:07:45.207Z,99200.63
2023-01-15T01:09:48.115Z,99198.84
2023-01-15T01:11:51.413Z,99216.13
2023-01-15T01:13:54.916Z,99202.28
2023-01-15T01:15:57.872Z,99200.59
2023-01-15T01:18:02.873Z,99190.22
2023-01-15T01:20:08.161Z,99189.31
2023-01-15T01:22:10.982Z,99189.31
2023-01-15T01:24:15.888Z,99185.03
2023-01-15T01:26:19.602Z,99183.28
2023-01-15T01:28:22.397Z,99185.03
2023-01-15T01:30:25.182Z,99183.25
2023-01-15T01:32:28.405Z,99178.91
2023-01-15T01:34:33.562Z,99179.81
2023-01-15T01:36:39.205Z,99180.69
2023-01-15T01:38:41.919Z,99179.81
2023-01-15T01:40:44.750Z,99170.28
2023-01-15T01:42:48.155Z,99187.59
2023-01-15T01:45:02.448Z,99178.03
2023-01-15T01:47:08.063Z,99178.03
2023-01-15T01:49:14.047Z,99185.81
2023-01-15T01:51:17.745Z,99183.25
2023-01-15T01:53:26.638Z,99181.53
2023-01-15T01:55:31.776Z,99180.63
2023-01-15T01:57:34.951Z,99175.44
2023-01-15T01:59:39.155Z,99184.94
2023-01-15T02:01:42.161Z,99185.84
2023-01-15T02:03:46.256Z,99171.16
2023-01-15T02:05:53.891Z,99174.66
2023-01-15T02:07:56.996Z,99180.66
2023-01-15T02:10:01.360Z,99163.31
2023-01-15T02:12:18.525Z,99167.63
2023-01-15T02:14:27.408Z,99165.91
2023-01-15T02:16:37.660Z,99162.47
2023-01-15T02:18:47.989Z,99158.19
2023-01-15T02:20:56.450Z,99159.91
2023-01-15T02:23:12.196Z,99153.84
2023-01-15T02:25:25.714Z,99165.06
2023-01-15T02:27:30.175Z,99169.44
2023-01-15T02:29:41.075Z,99167.72
2023-01-15T02:31:49.151Z,99171.16
2023-01-15T02:33:58.075Z,99176.41
2023-01-15T02:36:01.895Z,99174.69
2023-01-15T02:38:12.107Z,99179.84
2023-01-15T02:40:16.212Z,99170.34
2023-01-15T02:42:21.581Z,99174.63
2023-01-15T02:44:27.935Z,99178.97
2023-01-15T02:46:36.890Z,99183.34
2023-01-15T02:48:47.165Z,99183.34
2023-01-15T02:50:53.484Z,99181.63
2023-01-15T02:53:03.857Z,99191.13
2023-01-15T02:55:13.970Z,99200.72
2023-01-15T02:57:23.634Z,99195.53
2023-01-15T02:59:37.582Z,99217.16
2023-01-15T03:01:45.583Z,99224.09
2023-01-15T03:03:56.566Z,99234.31
2023-01-15T03:06:05.448Z,99240.41
2023-01-15T03:08:09.444Z,99243.06
2023-01-15T03:10:15.000Z,99252.63
2023-01-15T03:12:23.345Z,99252.69
2023-01-15T03:14:33.458Z,99257.91
2023-01-15T03:16:39.095Z,99246.63
2023-01-15T03:18:49.537Z,99249.22
2023-01-15T03:20:58.926Z,99251.00
2023-01-15T03:23:09.038Z,99257.88
2023-01-15T03:25:20.303Z,99262.22
2023-01-15T03:27:27.018Z,99258.78
2023-01-15T03:29:35.562Z,99264.81
2023-01-15T03:31:41.515Z,99252.72
2023-01-15T03:33:44.303Z,99256.19
2023-01-15T03:35:55.927Z,99268.28
2023-01-15T03:38:07.791Z,99263.09
2023-01-15T03:40:12.335Z,99263.09
2023-01-15T03:42:26.182Z,99259.66
2023-01-15T03:44:38.317Z,99255.31
2023-01-15T03:46:55.059Z,99257.88
2023-01-15T03:49:02.802Z,99257.03
2023-01-15T03:51:13.126Z,99244.94
2023-01-15T03:53:21.978Z,99242.34
2023-01-15T03:55:38.109Z,99255.28
2023-01-15T03:57:49.132Z,99244.06
2023-01-15T03:59:55.958Z,99256.19
2023-01-15T04:02:02.715Z,99257.88
2023-01-15T04:04:06.803Z,99266.56
2023-01-15T04:06:11.471Z,99272.59
2023-01-15T04:08:17.873Z,99263.09
2023-01-15T04:10:23.061Z,99270.03
2023-01-15T04:12:27.984Z,99267.44
2023-01-15T04:14:32.423Z,99265.69
2023-01-15T04:16:41.688Z,99275.22
2023-01-15T04:18:45.821Z,99276.06
2023-01-15T04:20:49.325Z,99284.69
2023-01-15T04:22:52.177Z,99294.22
2023-01-15T04:24:55.598Z,99297.66
2023-01-15T04:26:58.454Z,99308.88
2023-01-15T04:29:01.227Z,99304.59
2023-01-15T04:31:04.146Z,99302.84
2023-01-15T04:33:06.910Z,99310.63
2023-01-15T04:35:11.200Z,99317.53
2023-01-15T04:37:14.025Z,99312.38
2023-01-15T04:39:16.797Z,99310.66
2023-01-15T04:41:36.830Z,99315.81
2023-01-15T04:43:57.020Z,99317.56
2023-01-15T04:46:00.387Z,99314.94
2023-01-15T04:48:05.279Z,99314.94
2023-01-15T04:50:08.335Z,99312.38
2023-01-15T04:52:12.491Z,99316.66
2023-01-15T04:54:16.662Z,99320.97
2023-01-15T04:56:19.448Z,99333.91
2023-01-15T04:58:22.571Z,99332.16
2023-01-15T05:00:25.591Z,99346.03
2023-01-15T05:02:28.552Z,99337.41
2023-01-15T05:04:31.915Z,99336.56
2023-01-15T05:06:35.075Z,99343.44
2023-01-15T05:08:39.248Z,99345.19
2023-01-15T05:10:42.064Z,99339.09
2023-01-15T05:12:44.873Z,99347.69
2023-01-15T05:14:47.694Z,99348.44
2023-01-15T05:16:50.507Z,99348.44
2023-01-15T05:18:55.153Z,99347.56
2023-01-15T05:20:57.895Z,99347.53
2023-01-15T05:23:00.651Z,99345.78
2023-01-15T05:25:05.385Z,99352.59
2023-01-15T05:27:08.220Z,99354.34
2023-01-15T05:29:12.205Z,99363.75
2023-01-15T05:31:16.810Z,99356.84
2023-01-15T05:33:19.649Z,99362.03
2023-01-15T05:35:22.504Z,99358.59
2023-01-15T05:37:25.286Z,99367.22
2023-01-15T05:39:28.122Z,99359.50
2023-01-15T05:41:50.883Z,99360.34
2023-01-15T05:43:54.644Z,99362.00
2023-01-15T05:46:02.196Z,99366.31
2023-01-15T05:48:05.437Z,99367.13
2023-01-15T05:50:09.083Z,99377.47
2023-01-15T05:52:11.878Z,99376.66
2023-01-15T05:54:16.227Z,99384.44
2023-01-15T05:56:18.966Z,99385.28
2023-01-15T05:58:23.110Z,99372.34
2023-01-15T06:00:28.225Z,99369.72
2023-01-15T06:02:31.982Z,99365.34
2023-01-15T06:04:34.808Z,99373.13
2023-01-15T06:06:37.661Z,99368.81
2023-01-15T06:08:40.499Z,99374.91
2023-01-15T06:10:45.611Z,99376.59
2023-01-15T06:12:48.258Z,99380.94
2023-01-15T06:14:52.422Z,99399.03
2023-01-15T06:16:55.245Z,99414.53
2023-01-15T06:19:01.620Z,99421.47
2023-01-15T06:21:05.278Z,99438.63
2023-01-15T06:23:08.183Z,99436.84
2023-01-15T06:25:11.064Z,99429.06
2023-01-15T06:27:13.818Z,99428.22
2023-01-15T06:29:18.821Z,99439.28
2023-01-15T06:31:24.580Z,99454.69
2023-01-15T06:33:27.453Z,99463.22
2023-01-15T06:35:30.298Z,99450.28
2023-01-15T06:37:33.114Z,99437.44
2023-01-15T06:39:35.996Z,99441.81
2023-01-15T06:41:56.582Z,99440.00
2023-01-15T06:44:16.898Z,99445.19
2023-01-15T06:46:37.151Z,99448.59
2023-01-15T06:48:41.589Z,99438.25
2023-01-15T06:50:44.786Z,99464.94
2023-01-15T06:52:47.615Z,99471.78
2023-01-15T06:54:50.478Z,99465.81
2023-01-15T06:56:53.377Z,99463.25
2023-01-15T06:58:56.869Z,99467.59
2023-01-15T07:00:59.858Z,99461.47
2023-01-15T07:03:03.020Z,99477.88
2023-01-15T07:05:07.734Z,99485.53
2023-01-15T07:07:10.540Z,99495.81
2023-01-15T07:09:13.567Z,99503.63
2023-01-15T07:11:17.687Z,99505.31
2023-01-15T07:13:20.569Z,99518.28
2023-01-15T07:15:23.311Z,99532.16
2023-01-15T07:17:26.066Z,99543.34
2023-01-15T07:19:29.233Z,99542.53
2023-01-15T07:21:33.370Z,99552.75
2023-01-15T07:23:36.098Z,99557.84
2023-01-15T07:25:39.911Z,99553.44
2023-01-15T07:27:42.716Z,99556.75
2023-01-15T07:29:45.609Z,99559.28
2023-01-15T07:31:48.506Z,99555.00
2023-01-15T07:33:51.523Z,99560.28
2023-01-15T07:35:54.330Z,99549.09
2023-01-15T07:37:58.405Z,99551.78
2023-01-15T07:40:01.180Z,99556.00
2023-01-15T07:42:21.948Z,99550.75
2023-01-15T07:44:43.584Z,99574.78
2023-01-15T07:47:03.751Z,99589.31
2023-01-15T07:49:27.112Z,99585.72
2023-01-15T07:51:30.009Z,99596.78
2023-01-15T07:53:34.117Z,99598.38
2023-01-15T07:55:37.363Z,99594.97
2023-01-15T07:57:41.292Z,99603.59
2023-01-15T07:59:44.158Z,99605.25
2023-01-15T08:01:47.256Z,99598.31
2023-01-15T08:03:50.176Z,99594.00
2023-01-15T08:05:53.015Z,99602.72
2023-01-15T08:07:55.906Z,99603.53
2023-01-15T08:10:00.089Z,99608.69
2023-01-15T08:12:21.571Z,99611.94
2023-01-15T08:14:41.788Z,99607.69
2023-01-15T08:16:44.546Z,99616.22
2023-01-15T08:18:47.342Z,99612.88
2023-01-15T08:20:50.300Z,99613.84
2023-01-15T08:22:53.555Z,99618.09
2023-01-15T08:24:56.365Z,99630.88
2023-01-15T08:27:00.451Z,99632.69
2023-01-15T08:29:03.250Z,99632.75
2023-01-15T08:31:06.663Z,99638.03
2023-01-15T08:33:09.435Z,99638.00
2023-01-15T08:35:13.058Z,99633.91
2023-01-15T08:37:15.902Z,99639.78
2023-01-15T08:39:19.087Z,99638.16
2023-01-15T08:41:21.958Z,99635.56
2023-01-15T08:43:26.255Z,99640.72
2023-01-15T08:45:29.134Z,99640.81
2023-01-15T08:47:32.855Z,99637.63
2023-01-15T08:49:35.734Z,99639.50
2023-01-15T08:51:38.529Z,99649.06
2023-01-15T08:53:42.136Z,99647.41
2023-01-15T08:55:44.956Z,99645.84
2023-01-15T08:57:47.755Z,99659.53
2023-01-15T08:59:51.995Z,99667.13
2023-01-15T09:01:55.020Z,99670.72
2023-01-15T09:03:58.144Z,99673.03
2023-01-15T09:06:01.730Z,99683.19
2023-01-15T09:08:05.277Z,99692.59
2023-01-15T09:10:09.216Z,99687.47
2023-01-15T09:12:12.004Z,99690.09
2023-01-15T09:14:59.692Z,99696.06
2023-01-15T09:16:40.868Z,99703.91
2023-01-15T09:18:43.937Z,99702.94
2023-01-15T09:20:46.737Z,99711.50
2023-01-15T09:22:50.003Z,99711.47
2023-01-15T09:24:52.783Z,99710.47
2023-01-15T09:26:55.588Z,99713.72
2023-01-15T09:28:59.099Z,99713.63
2023-01-15T09:31:02.578Z,99719.78
2023-01-15T09:33:06.832Z,99723.38
2023-01-15T09:35:10.139Z,99720.00
2023-01-15T09:37:12.981Z,99728.66
2023-01-15T09:39:15.748Z,99733.13
2023-01-15T09:41:36.451Z,99726.31
2023-01-15T09:43:51.122Z,99727.13
2023-01-15T09:45:57.965Z,99732.38
2023-01-15T09:48:18.293Z,99738.59
2023-01-15T09:50:36.499Z,99738.72
2023-01-15T09:52:59.969Z,99746.56
2023-01-15T09:55:11.107Z,99749.91
2023-01-15T09:57:16.731Z,99755.19
2023-01-15T09:59:29.171Z,99751.00
2023-01-15T10:01:34.298Z,99753.66
2023-01-15T10:03:44.052Z,99755.31
2023-01-15T10:05:53.758Z,99773.03
2023-01-15T10:08:02.009Z,99767.81
2023-01-15T10:10:08.403Z,99785.88
2023-01-15T10:12:36.629Z,99783.09
2023-01-15T10:14:46.843Z,99783.16
2023-01-15T10:16:51.417Z,99790.84
2023-01-15T10:18:58.153Z,99789.75
2023-01-15T10:21:27.259Z,99796.00
2023-01-15T10:23:36.579Z,99798.63
2023-01-15T10:25:48.498Z,99799.34
2023-01-15T10:27:52.811Z,99805.38
2023-01-15T10:30:01.524Z,99807.78
2023-01-15T10:32:17.613Z,99818.97
2023-01-15T10:34:52.287Z,99826.84
2023-01-15T10:37:02.019Z,99832.00
2023-01-15T10:39:16.134Z,99846.34
2023-01-15T10:41:32.724Z,99855.31
2023-01-15T10:43:47.369Z,99849.69
2023-01-15T10:45:54.983Z,99848.91
2023-01-15T10:48:02.311Z,99844.94
2023-01-15T10:50:17.795Z,99848.25
2023-01-15T10:52:26.282Z,99855.16
2023-01-15T10:54:36.228Z,99851.38
2023-01-15T10:56:44.277Z,99850.38
2023-01-15T10:58:53.455Z,99840.88
2023-01-15T11:00:59.968Z,99847.44
2023-01-15T11:03:07.500Z,99841.16
2023-01-15T11:05:17.042Z,99833.31
2023-01-15T11:07:20.926Z,99846.03
2023-01-15T11:09:31.275Z,99854.88
2023-01-15T11:12:03.408Z,99855.50
2023-01-15T11:14:24.022Z,99858.78
2023-01-15T11:16:45.499Z,99861.28
2023-01-15T11:19:06.246Z,99866.38
2023-01-15T11:21:15.217Z,99860.22
2023-01-15T11:23:21.695Z,99871.31
2023-01-15T11:25:30.394Z,99863.94
2023-01-15T11:27:34.529Z,99866.75
2023-01-15T11:29:38.103Z,99877.34
2023-01-15T11:31:42.174Z,99876.91
2023-01-15T11:33:46.537Z,99879.09
2023-01-15T11:35:52.705Z,99874.19
2023-01-15T11:38:15.243Z,99874.13
2023-01-15T11:40:19.691Z,99877.59
2023-01-15T11:42:48.807Z,99872.78
2023-01-15T11:45:10.459Z,99870.34
2023-01-15T11:47:32.038Z,99873.56
2023-01-15T11:49:52.215Z,99878.38
2023-01-15T11:51:58.676Z,99871.56
2023-01-15T11:54:05.643Z,99865.56
2023-01-15T11:56:13.912Z,99874.75
2023-01-15T11:58:16.902Z,99883.81
2023-01-15T12:00:23.640Z,99887.25
2023-01-15T12:02:35.746Z,99884.59
2023-01-15T12:04:47.622Z,99887.03
2023-01-15T12:06:51.158Z,99873.19
2023-01-15T12:09:01.441Z,99871.50
2023-01-15T12:11:26.769Z,99867.28
2023-01-15T12:13:35.898Z,99874.25
2023-01-15T12:15:45.091Z,99859.78
2023-01-15T12:18:12.390Z,99872.84
2023-01-15T12:20:23.982Z,99874.38
2023-01-15T12:22:44.840Z,99863.38
2023-01-15T12:25:07.061Z,99857.44
2023-01-15T12:27:26.726Z,99852.31
2023-01-15T12:29:39.479Z,99848.06
2023-01-15T12:31:47.256Z,99850.41
2023-01-15T12:33:54.897Z,99858.22
2023-01-15T12:36:03.473Z,99852.28
2023-01-15T12:38:15.833Z,99843.44
2023-01-15T12:40:23.925Z,99833.38
2023-01-15T12:42:48.720Z,99822.16
2023-01-15T12:45:08.810Z,99821.81
2023-01-15T12:47:17.764Z,99816.81
2023-01-15T12:49:33.409Z,99804.50
2023-01-15T12:51:46.434Z,99804.94
2023-01-15T12:53:54.323Z,99803.63
2023-01-15T12:56:01.666Z,99800.41
2023-01-15T12:58:18.398Z,99799.66
2023-01-15T13:00:24.276Z,99791.25
2023-01-15T13:02:36.840Z,99796.63
2023-01-15T13:04:47.027Z,99796.81
2023-01-15T13:06:54.946Z,99794.38
2023-01-15T13:09:04.058Z,99788.56
2023-01-15T13:11:07.606Z,99790.31
2023-01-15T13:13:18.230Z,99793.78
2023-01-15T13:15:28.109Z,99793.88
2023-01-15T13:17:40.589Z,99788.03
2023-01-15T13:19:53.662Z,99790.03
2023-01-15T13:22:01.124Z,99789.16
2023-01-15T13:24:24.182Z,99788.47
2023-01-15T13:26:48.064Z,99795.50
2023-01-15T13:29:07.172Z,99791.31
2023-01-15T13:31:30.154Z,99795.88
2023-01-15T13:33:38.908Z,99800.94
2023-01-15T13:35:48.123Z,99806.16
2023-01-15T13:37:53.757Z,99800.13
2023-01-15T13:40:01.315Z,99795.84
2023-01-15T13:42:23.204Z,99797.59
2023-01-15T13:44:34.553Z,99809.88
2023-01-15T13:46:37.479Z,99805.44
2023-01-15T13:48:45.597Z,99823.66
2023-01-15T13:50:54.113Z,99822.84
2023-01-15T13:53:03.698Z,99825.41
2023-01-15T13:55:12.916Z,99832.38
2023-01-15T13:57:25.114Z,99843.56
2023-01-15T13:59:43.225Z,99838.63
2023-01-15T14:01:46.178Z,99836.72
2023-01-15T14:03:59.149Z,99829.00
2023-01-15T14:06:04.337Z,99831.56
2023-01-15T14:08:17.468Z,99838.34
2023-01-15T14:10:33.470Z,99836.56
2023-01-15T14:12:50.203Z,99838.25
2023-01-15T14:15:17.423Z,99827.38
2023-01-15T14:17:57.696Z,99833.47
2023-01-15T14:20:28.005Z,99837.06
2023-01-15T14:22:48.782Z,99828.63
2023-01-15T14:25:04.235Z,99832.88
2023-01-15T14:27:09.509Z,99836.31
2023-01-15T14:29:33.602Z,99848.97
2023-01-15T14:31:57.943Z,99848.13
2023-01-15T14:34:20.579Z,99857.63
2023-01-15T14:36:27.809Z,99854.28
2023-01-15T14:38:33.305Z,99857.81
2023-01-15T14:40:40.625Z,99858.72
2023-01-15T14:43:06.851Z,99865.50
2023-01-15T14:45:21.907Z,99859.19
2023-01-15T14:47:33.226Z,99867.09
2023-01-15T14:49:49.551Z,99871.34
2023-01-15T14:51:52.549Z,99861.69
2023-01-15T14:53:58.638Z,99867.00
2023-01-15T14:56:08.494Z,99864.50
2023-01-15T14:58:17.340Z,99864.38
2023-01-15T15:00:21.958Z,99878.81
2023-01-15T15:02:33.491Z,99872.66
2023-01-15T15:04:40.379Z,99875.22
2023-01-15T15:06:49.141Z,99874.47
2023-01-15T15:08:55.047Z,99872.66
2023-01-15T15:11:00.219Z,99867.66
2023-01-15T15:13:09.220Z,99876.16
2023-01-15T15:15:17.884Z,99875.91
2023-01-15T15:17:30.697Z,99872.47
2023-01-15T15:19:39.738Z,99870.16
2023-01-15T15:21:46.227Z,99863.44
2023-01-15T15:23:57.006Z,99862.75
2023-01-15T15:26:01.394Z,99882.09
2023-01-15T15:28:06.516Z,99881.97
2023-01-15T15:30:15.369Z,99877.47
2023-01-15T15:32:20.824Z,99881.56
2023-01-15T15:34:28.635Z,99884.09
2023-01-15T15:36:39.050Z,99884.66
2023-01-15T15:38:53.652Z,99884.59
2023-01-15T15:40:59.925Z,99885.38
2023-01-15T15:43:28.791Z,99876.00
2023-01-15T15:45:50.763Z,99866.47
2023-01-15T15:48:15.258Z,99866.44
2023-01-15T15:50:23.109Z,99865.69
2023-01-15T15:52:27.981Z,99859.66
2023-01-15T15:54:32.658Z,99862.06
2023-01-15T15:56:36.119Z,99860.41
2023-01-15T15:58:39.973Z,99861.47
2023-01-15T16:00:46.099Z,99854.66
2023-01-15T16:02:49.222Z,99847.84
2023-01-15T16:04:53.278Z,99836.84
2023-01-15T16:06:56.055Z,99849.81
2023-01-15T16:09:04.468Z,99839.66
2023-01-15T16:11:12.349Z,99845.47
2023-01-15T16:13:24.890Z,99844.34
2023-01-15T16:15:30.754Z,99845.31
2023-01-15T16:17:34.553Z,99846.16
2023-01-15T16:19:37.728Z,99835.00
2023-01-15T16:21:42.495Z,99841.91
2023-01-15T16:23:56.206Z,99839.00
2023-01-15T16:26:09.020Z,99833.91
2023-01-15T16:28:24.927Z,99832.97
2023-01-15T16:30:29.188Z,99822.81
2023-01-15T16:32:35.667Z,99833.22
2023-01-15T16:34:38.606Z,99830.38
2023-01-15T16:36:45.365Z,99826.25
2023-01-15T16:38:51.584Z,99834.81
2023-01-15T16:40:54.884Z,99834.06
2023-01-15T16:43:06.770Z,99829.88
2023-01-15T16:45:22.587Z,99829.56
2023-01-15T16:47:27.239Z,99826.31
2023-01-15T16:49:31.890Z,99828.66
2023-01-15T16:51:36.298Z,99823.47
2023-01-15T16:53:41.422Z,99815.84
2023-01-15T16:55:45.829Z,99819.31
2023-01-15T16:57:48.630Z,99821.97
2023-01-15T16:59:58.698Z,99814.84
2023-01-15T17:02:07.867Z,99808.94
2023-01-15T17:04:20.696Z,99817.28
2023-01-15T17:06:27.118Z,99820.75
2023-01-15T17:08:36.478Z,99823.50
2023-01-15T17:10:39.382Z,99827.72
2023-01-15T17:12:44.306Z,99820.06
2023-01-15T17:14:46.985Z,99814.19
2023-01-15T17:17:18.572Z,99816.59
2023-01-15T17:19:24.366Z,99820.81
2023-01-15T17:21:29.296Z,99820.94
2023-01-15T17:23:35.567Z,99819.16
2023-01-15T17:25:38.416Z,99819.09
2023-01-15T17:27:41.238Z,99815.78
2023-01-15T17:29:44.246Z,99805.44
2023-01-15T17:31:47.102Z,99810.63
2023-01-15T17:33:51.735Z,99804.63
2023-01-15T17:35:56.592Z,99807.16
2023-01-15T17:37:59.445Z,99811.63
2023-01-15T17:40:02.318Z,99820.00
2023-01-15T17:42:13.959Z,99814.94
2023-01-15T17:44:16.705Z,99824.50
2023-01-15T17:46:19.636Z,99817.44
2023-01-15T17:48:22.434Z,99808.03
2023-01-15T17:50:26.738Z,99805.34
2023-01-15T17:52:29.510Z,99809.00
2023-01-15T17:54:49.810Z,99805.44
2023-01-15T17:57:24.857Z,99795.22
2023-01-15T17:59:45.124Z,99794.41
2023-01-15T18:02:06.419Z,99799.34
2023-01-15T18:04:35.848Z,99791.66
2023-01-15T18:06:43.984Z,99800.06
2023-01-15T18:08:49.927Z,99802.94
2023-01-15T18:10:52.784Z,99794.31
2023-01-15T18:12:55.646Z,99791.69
2023-01-15T18:14:58.501Z,99793.22
2023-01-15T18:17:01.830Z,99788.06
2023-01-15T18:19:04.706Z,99790.72
2023-01-15T18:21:07.595Z,99794.19
2023-01-15T18:23:11.906Z,99786.25
2023-01-15T18:25:14.704Z,99793.03
2023-01-15T18:27:17.499Z,99788.81
2023-01-15T18:29:20.754Z,99783.59
2023-01-15T18:31:23.599Z,99781.97
2023-01-15T18:33:26.389Z,99786.16
2023-01-15T18:35:29.173Z,99774.13
2023-01-15T18:37:33.126Z,99789.41
2023-01-15T18:39:37.852Z,99803.09
2023-01-15T18:41:58.795Z,99804.88
2023-01-15T18:44:18.973Z,99805.69
2023-01-15T18:46:39.426Z,99804.63
2023-01-15T18:48:42.330Z,99808.31
2023-01-15T18:50:45.137Z,99815.19
2023-01-15T18:52:54.054Z,99801.53
2023-01-15T18:54:58.368Z,99804.16
2023-01-15T18:57:01.188Z,99813.59
2023-01-15T18:59:03.999Z,99808.31
2023-01-15T19:01:08.988Z,99806.44
2023-01-15T19:03:11.938Z,99800.00
2023-01-15T19:05:16.971Z,99793.88
2023-01-15T19:07:19.840Z,99800.00
2023-01-15T19:09:24.148Z,99792.69
2023-01-15T19:11:28.722Z,99784.13
2023-01-15T19:13:31.546Z,99780.13
2023-01-15T19:15:51.906Z,99773.09
2023-01-15T19:18:12.274Z,99774.53
2023-01-15T19:20:17.316Z,99765.91
2023-01-15T19:22:37.713Z,99762.72
2023-01-15T19:24:40.536Z,99767.06
2023-01-15T19:26:44.668Z,99774.72
2023-01-15T19:28:47.464Z,99786.56
2023-01-15T19:31:12.405Z,99779.78
2023-01-15T19:33:15.164Z,99777.06
2023-01-15T19:35:18.356Z,99776.31
2023-01-15T19:37:22.066Z,99778.88
2023-01-15T19:39:24.894Z,99765.91
2023-01-15T19:41:45.394Z,99754.50
2023-01-15T19:44:06.967Z,99758.78
2023-01-15T19:46:28.379Z,99768.97
2023-01-15T19:48:48.609Z,99763.69
2023-01-15T19:50:54.071Z,99762.78
2023-01-15T19:52:56.942Z,99761.09
2023-01-15T19:55:00.248Z,99770.59
2023-01-15T19:57:03.129Z,99759.56
2023-01-15T19:59:07.806Z,99754.25
2023-01-15T20:01:14.671Z,99751.78
2023-01-15T20:03:17.806Z,99747.69
2023-01-15T20:05:21.695Z,99740.78
2023-01-15T20:07:24.477Z,99732.38
2023-01-15T20:09:27.233Z,99740.88
2023-01-15T20:11:50.889Z,99731.53
2023-01-15T20:13:53.678Z,99732.34
2023-01-15T20:16:01.218Z,99737.53
2023-01-15T20:18:04.141Z,99721.16
2023-01-15T20:20:08.278Z,99727.22
2023-01-15T20:22:11.149Z,99727.09
2023-01-15T20:24:13.999Z,99729.81
2023-01-15T20:26:18.156Z,99736.78
2023-01-15T20:28:21.495Z,99726.44
2023-01-15T20:30:26.340Z,99718.00
2023-01-15T20:32:30.433Z,99706.69
2023-01-15T20:34:36.282Z,99710.19
2023-01-15T20:36:39.163Z,99708.56
2023-01-15T20:38:41.921Z,99718.75
2023-01-15T20:40:46.285Z,99707.56
2023-01-15T20:43:06.996Z,99713.34
2023-01-15T20:45:10.929Z,99703.88
2023-01-15T20:47:28.103Z,99700.44
2023-01-15T20:49:32.590Z,99691.88
2023-01-15T20:51:35.373Z,99694.56
2023-01-15T20:53:39.326Z,99683.38
2023-01-15T20:55:55.910Z,99691.84
2023-01-15T20:58:00.457Z,99686.59
2023-01-15T21:00:07.842Z,99683.16
2023-01-15T21:02:12.497Z,99673.03
2023-01-15T21:04:15.426Z,99672.25
2023-01-15T21:06:19.611Z,99675.59
2023-01-15T21:08:22.454Z,99666.19
2023-01-15T21:10:26.569Z,99669.69
2023-01-15T21:12:29.353Z,99666.19
2023-01-15T21:14:32.160Z,99665.22
2023-01-15T21:16:35.085Z,99651.59
2023-01-15T21:18:38.932Z,99653.28
2023-01-15T21:20:41.712Z,99650.84
2023-01-15T21:22:47.343Z,99644.00
2023-01-15T21:24:51.610Z,99646.56
2023-01-15T21:26:54.439Z,99632.97
2023-01-15T21:28:57.606Z,99634.66
2023-01-15T21:31:03.815Z,99632.91
2023-01-15T21:33:08.815Z,99627.66
2023-01-15T21:35:11.779Z,99627.72
2023-01-15T21:37:15.873Z,99618.34
2023-01-15T21:39:20.741Z,99618.25
2023-01-15T21:41:45.766Z,99616.56
2023-01-15T21:44:06.032Z,99608.69
2023-01-15T21:46:08.902Z,99611.19
2023-01-15T21:48:11.637Z,99607.03
2023-01-15T21:50:14.371Z,99602.72
2023-01-15T21:52:19.302Z,99593.97
2023-01-15T21:54:24.529Z,99600.84
2023-01-15T21:56:27.367Z,99603.41
2023-01-15T21:58:30.235Z,99600.25
2023-01-15T22:00:33.128Z,99598.53
2023-01-15T22:02:36.208Z,99601.84
2023-01-15T22:04:39.126Z,99582.19
2023-01-15T22:06:41.904Z,99580.22
2023-01-15T22:08:44.763Z,99585.41
2023-01-15T22:10:49.804Z,99574.28
2023-01-15T22:12:52.608Z,99571.63
2023-01-15T22:14:57.366Z,99559.63
2023-01-15T22:17:01.768Z,99551.91
2023-01-15T22:19:04.604Z,99563.09
2023-01-15T22:21:08.512Z,99551.09
2023-01-15T22:23:11.390Z,99552.03
2023-01-15T22:25:15.544Z,99551.16
2023-01-15T22:27:20.661Z,99551.22
2023-01-15T22:29:24.840Z,99542.59
2023-01-15T22:31:28.387Z,99536.47
2023-01-15T22:33:31.749Z,99538.97
2023-01-15T22:35:34.640Z,99524.38
2023-01-15T22:37:37.436Z,99531.19
2023-01-15T22:39:40.247Z,99540.66
2023-01-15T22:42:00.708Z,99520.97
2023-01-15T22:44:05.466Z,99523.38
2023-01-15T22:46:12.566Z,99520.72
2023-01-15T22:48:15.577Z,99515.56
2023-01-15T22:50:18.629Z,99508.03
2023-01-15T22:52:25.038Z,99514.94
2023-01-15T22:54:27.825Z,99507.97
2023-01-15T22:56:30.569Z,99511.97
2023-01-15T22:58:33.287Z,99504.28
2023-01-15T23:00:37.589Z,99499.31
2023-01-15T23:02:55.542Z,99506.91
2023-01-15T23:04:58.321Z,99505.22
2023-01-15T23:07:01.285Z,99500.78
2023-01-15T23:09:04.912Z,99490.50
2023-01-15T23:11:11.312Z,99492.41
2023-01-15T23:13:14.493Z,99482.94
2023-01-15T23:15:17.331Z,99486.34
2023-01-15T23:17:21.490Z,99475.25
2023-01-15T23:19:24.928Z,99470.91
2023-01-15T23:21:27.980Z,99468.34
2023-01-15T23:23:30.862Z,99464.94
2023-01-15T23:25:33.662Z,99457.19
2023-01-15T23:27:36.542Z,99465.81
2023-01-15T23:29:39.289Z,99453.66
2023-01-15T23:31:42.183Z,99447.81
2023-01-15T23:33:46.889Z,99435.72
2023-01-15T23:35:49.711Z,99434.78
2023-01-15T23:37:52.518Z,99439.97
2023-01-15T23:39:55.363Z,99431.44
2023-01-15T23:42:15.641Z,99434.94
2023-01-15T23:44:38.531Z,99428.69
2023-01-15T23:46:41.361Z,99433.88
2023-01-15T23:48:44.667Z,99430.34
2023-01-15T23:50:48.829Z,99435.56
2023-01-15T23:52:51.730Z,99425.25
2023-01-15T23:54:54.553Z,99413.25
2023-01-15T23:56:58.286Z,99412.47
2023-01-15T23:59:01.341Z,99402.22
